sensor_id;sensor_type;location;lat;lon;timestamp;P1;durP1;ratioP1;P2;durP2;ratioP2
50495;SDS011;38806;51.554;5.704;2022-09-27T00:00:09;15.52;;;4.88;;
50495;SDS011;38806;51.554;5.704;2022-09-27T00:02:10;18.45;;;5.95;;
50495;SDS011;38806;51.554;5.704;2022-09-27T00:04:10;10.02;;;5.55;;
50495;SDS011;38806;51.554;5.704;2022-09-27T00:06:15;13.27;;;5.90;;
50495;SDS011;38806;51.554;5.704;2022-09-27T00:08:21;24.45;;;5.65;;
50495;SDS011;38806;51.554;5.704;2022-09-27T00:10:21;11.95;;;4.50;;
50495;SDS011;38806;51.554;5.704;2022-09-27T00:12:22;15.88;;;4.63;;
50495;SDS011;38806;51.554;5.704;2022-09-27T00:14:23;12.43;;;4.35;;
50495;SDS011;38806;51.554;5.704;2022-09-27T00:16:25;11.48;;;4.63;;
50495;SDS011;38806;51.554;5.704;2022-09-27T00:18:27;22.58;;;6.13;;
50495;SDS011;38806;51.554;5.704;2022-09-27T00:20:27;16.75;;;4.88;;
50495;SDS011;38806;51.554;5.704;2022-09-27T00:22:28;11.85;;;4.40;;
50495;SDS011;38806;51.554;5.704;2022-09-27T00:24:28;11.50;;;3.88;;
50495;SDS011;38806;51.554;5.704;2022-09-27T00:26:30;12.98;;;4.20;;
50495;SDS011;38806;51.554;5.704;2022-09-27T00:28:30;12.88;;;4.95;;
50495;SDS011;38806;51.554;5.704;2022-09-27T00:30:31;10.38;;;4.82;;
50495;SDS011;38806;51.554;5.704;2022-09-27T00:32:31;14.77;;;6.35;;
50495;SDS011;38806;51.554;5.704;2022-09-27T00:34:31;14.25;;;7.88;;
50495;SDS011;38806;51.554;5.704;2022-09-27T00:36:32;14.50;;;7.63;;
50495;SDS011;38806;51.554;5.704;2022-09-27T00:38:33;20.83;;;7.10;;
50495;SDS011;38806;51.554;5.704;2022-09-27T00:40:33;15.57;;;7.45;;
50495;SDS011;38806;51.554;5.704;2022-09-27T00:42:33;16.55;;;6.80;;
50495;SDS011;38806;51.554;5.704;2022-09-27T00:46:39;19.95;;;11.48;;
50495;SDS011;38806;51.554;5.704;2022-09-27T00:48:43;16.98;;;8.32;;
50495;SDS011;38806;51.554;5.704;2022-09-27T00:50:46;18.10;;;8.13;;
50495;SDS011;38806;51.554;5.704;2022-09-27T00:53:03;18.83;;;8.20;;
50495;SDS011;38806;51.554;5.704;2022-09-27T00:55:13;14.48;;;7.20;;
50495;SDS011;38806;51.554;5.704;2022-09-27T00:57:16;24.27;;;8.52;;
50495;SDS011;38806;51.554;5.704;2022-09-27T00:59:22;9.43;;;6.15;;
50495;SDS011;38806;51.554;5.704;2022-09-27T01:01:27;14.63;;;6.70;;
50495;SDS011;38806;51.554;5.704;2022-09-27T01:05:54;11.77;;;5.00;;
50495;SDS011;38806;51.554;5.704;2022-09-27T01:07:56;11.50;;;6.40;;
50495;SDS011;38806;51.554;5.704;2022-09-27T01:09:59;11.07;;;4.53;;
50495;SDS011;38806;51.554;5.704;2022-09-27T01:16:46;8.45;;;3.72;;
50495;SDS011;38806;51.554;5.704;2022-09-27T01:19:21;12.32;;;3.47;;
50495;SDS011;38806;51.554;5.704;2022-09-27T01:23:40;11.30;;;3.75;;
50495;SDS011;38806;51.554;5.704;2022-09-27T01:28:30;7.80;;;2.03;;
50495;SDS011;38806;51.554;5.704;2022-09-27T01:35:06;7.43;;;1.50;;
50495;SDS011;38806;51.554;5.704;2022-09-27T01:39:47;6.75;;;1.42;;
50495;SDS011;38806;51.554;5.704;2022-09-27T01:41:59;4.72;;;1.90;;
50495;SDS011;38806;51.554;5.704;2022-09-27T01:44:08;7.28;;;3.15;;
50495;SDS011;38806;51.554;5.704;2022-09-27T01:46:10;4.65;;;2.47;;
50495;SDS011;38806;51.554;5.704;2022-09-27T01:48:21;9.35;;;2.40;;
50495;SDS011;38806;51.554;5.704;2022-09-27T01:50:33;9.38;;;2.00;;
50495;SDS011;38806;51.554;5.704;2022-09-27T01:52:40;9.98;;;2.45;;
50495;SDS011;38806;51.554;5.704;2022-09-27T01:54:49;5.93;;;1.60;;
50495;SDS011;38806;51.554;5.704;2022-09-27T01:56:56;9.63;;;2.55;;
50495;SDS011;38806;51.554;5.704;2022-09-27T01:59:01;7.32;;;1.77;;
50495;SDS011;38806;51.554;5.704;2022-09-27T02:03:10;3.78;;;1.50;;
50495;SDS011;38806;51.554;5.704;2022-09-27T02:05:13;5.05;;;1.70;;
50495;SDS011;38806;51.554;5.704;2022-09-27T02:07:19;6.80;;;1.65;;
50495;SDS011;38806;51.554;5.704;2022-09-27T02:09:26;9.43;;;2.90;;
50495;SDS011;38806;51.554;5.704;2022-09-27T02:11:31;7.50;;;2.67;;
50495;SDS011;38806;51.554;5.704;2022-09-27T02:13:37;10.40;;;4.18;;
50495;SDS011;38806;51.554;5.704;2022-09-27T02:16:00;12.73;;;3.08;;
50495;SDS011;38806;51.554;5.704;2022-09-27T02:18:12;9.73;;;2.55;;
50495;SDS011;38806;51.554;5.704;2022-09-27T02:27:26;7.25;;;1.98;;
50495;SDS011;38806;51.554;5.704;2022-09-27T02:29:33;9.27;;;2.05;;
50495;SDS011;38806;51.554;5.704;2022-09-27T02:31:38;12.80;;;2.38;;
50495;SDS011;38806;51.554;5.704;2022-09-27T02:36:05;7.93;;;3.58;;
50495;SDS011;38806;51.554;5.704;2022-09-27T02:38:05;7.22;;;1.85;;
50495;SDS011;38806;51.554;5.704;2022-09-27T02:40:06;8.07;;;2.00;;
50495;SDS011;38806;51.554;5.704;2022-09-27T02:42:07;9.70;;;2.20;;
50495;SDS011;38806;51.554;5.704;2022-09-27T02:44:09;5.13;;;2.00;;
50495;SDS011;38806;51.554;5.704;2022-09-27T02:48:46;5.10;;;1.85;;
50495;SDS011;38806;51.554;5.704;2022-09-27T02:51:08;7.88;;;2.10;;
50495;SDS011;38806;51.554;5.704;2022-09-27T02:53:28;7.65;;;2.58;;
50495;SDS011;38806;51.554;5.704;2022-09-27T03:02:30;5.07;;;2.17;;
50495;SDS011;38806;51.554;5.704;2022-09-27T03:06:57;6.93;;;1.80;;
50495;SDS011;38806;51.554;5.704;2022-09-27T03:08:59;6.82;;;1.35;;
50495;SDS011;38806;51.554;5.704;2022-09-27T03:10:59;7.80;;;1.27;;
50495;SDS011;38806;51.554;5.704;2022-09-27T03:12:59;7.38;;;2.35;;
50495;SDS011;38806;51.554;5.704;2022-09-27T03:15:00;6.22;;;1.40;;
50495;SDS011;38806;51.554;5.704;2022-09-27T03:17:00;3.20;;;1.27;;
50495;SDS011;38806;51.554;5.704;2022-09-27T03:19:00;5.00;;;1.70;;
50495;SDS011;38806;51.554;5.704;2022-09-27T03:21:01;8.00;;;1.60;;
50495;SDS011;38806;51.554;5.704;2022-09-27T03:23:01;5.72;;;1.55;;
50495;SDS011;38806;51.554;5.704;2022-09-27T03:25:02;5.95;;;1.50;;
50495;SDS011;38806;51.554;5.704;2022-09-27T03:27:03;7.55;;;1.85;;
50495;SDS011;38806;51.554;5.704;2022-09-27T03:29:03;4.70;;;1.55;;
50495;SDS011;38806;51.554;5.704;2022-09-27T03:31:03;6.53;;;1.45;;
50495;SDS011;38806;51.554;5.704;2022-09-27T03:33:04;4.72;;;1.50;;
50495;SDS011;38806;51.554;5.704;2022-09-27T03:35:04;5.43;;;1.73;;
50495;SDS011;38806;51.554;5.704;2022-09-27T03:37:05;4.72;;;1.73;;
50495;SDS011;38806;51.554;5.704;2022-09-27T03:39:05;4.88;;;1.60;;
50495;SDS011;38806;51.554;5.704;2022-09-27T03:41:06;7.97;;;1.67;;
50495;SDS011;38806;51.554;5.704;2022-09-27T03:43:06;8.65;;;1.73;;
50495;SDS011;38806;51.554;5.704;2022-09-27T03:45:07;9.68;;;2.28;;
50495;SDS011;38806;51.554;5.704;2022-09-27T03:47:07;10.77;;;2.50;;
50495;SDS011;38806;51.554;5.704;2022-09-27T03:49:07;10.82;;;2.10;;
50495;SDS011;38806;51.554;5.704;2022-09-27T03:51:08;5.07;;;2.58;;
50495;SDS011;38806;51.554;5.704;2022-09-27T03:53:11;6.32;;;1.80;;
50495;SDS011;38806;51.554;5.704;2022-09-27T03:55:11;6.95;;;1.70;;
50495;SDS011;38806;51.554;5.704;2022-09-27T03:57:12;7.72;;;1.80;;
50495;SDS011;38806;51.554;5.704;2022-09-27T03:59:13;7.60;;;2.00;;
50495;SDS011;38806;51.554;5.704;2022-09-27T04:01:13;8.15;;;2.10;;
50495;SDS011;38806;51.554;5.704;2022-09-27T04:03:13;8.63;;;4.50;;
50495;SDS011;38806;51.554;5.704;2022-09-27T04:05:14;6.20;;;2.28;;
50495;SDS011;38806;51.554;5.704;2022-09-27T04:07:15;7.28;;;2.72;;
50495;SDS011;38806;51.554;5.704;2022-09-27T04:09:16;6.13;;;2.30;;
50495;SDS011;38806;51.554;5.704;2022-09-27T04:11:17;7.00;;;1.80;;
50495;SDS011;38806;51.554;5.704;2022-09-27T04:13:17;7.50;;;2.15;;
50495;SDS011;38806;51.554;5.704;2022-09-27T04:15:18;8.75;;;1.90;;
50495;SDS011;38806;51.554;5.704;2022-09-27T04:17:18;9.45;;;2.25;;
50495;SDS011;38806;51.554;5.704;2022-09-27T04:19:18;8.82;;;3.58;;
50495;SDS011;38806;51.554;5.704;2022-09-27T04:21:19;7.32;;;2.30;;
50495;SDS011;38806;51.554;5.704;2022-09-27T04:23:19;7.68;;;2.05;;
50495;SDS011;38806;51.554;5.704;2022-09-27T04:25:20;4.40;;;1.55;;
50495;SDS011;38806;51.554;5.704;2022-09-27T04:27:20;11.25;;;2.30;;
50495;SDS011;38806;51.554;5.704;2022-09-27T04:29:21;12.55;;;1.85;;
50495;SDS011;38806;51.554;5.704;2022-09-27T04:31:21;6.22;;;2.42;;
50495;SDS011;38806;51.554;5.704;2022-09-27T04:33:22;6.55;;;2.13;;
50495;SDS011;38806;51.554;5.704;2022-09-27T04:35:23;7.80;;;1.85;;
50495;SDS011;38806;51.554;5.704;2022-09-27T04:37:41;9.55;;;1.92;;
50495;SDS011;38806;51.554;5.704;2022-09-27T04:39:44;10.77;;;2.05;;
50495;SDS011;38806;51.554;5.704;2022-09-27T04:41:44;3.53;;;1.52;;
50495;SDS011;38806;51.554;5.704;2022-09-27T04:43:44;7.03;;;2.03;;
50495;SDS011;38806;51.554;5.704;2022-09-27T04:45:45;6.32;;;1.67;;
50495;SDS011;38806;51.554;5.704;2022-09-27T04:47:46;4.88;;;1.40;;
50495;SDS011;38806;51.554;5.704;2022-09-27T04:49:47;5.15;;;1.67;;
50495;SDS011;38806;51.554;5.704;2022-09-27T04:51:48;11.80;;;3.90;;
50495;SDS011;38806;51.554;5.704;2022-09-27T04:53:48;4.53;;;1.75;;
50495;SDS011;38806;51.554;5.704;2022-09-27T04:55:49;10.05;;;2.05;;
50495;SDS011;38806;51.554;5.704;2022-09-27T04:57:52;6.97;;;2.17;;
50495;SDS011;38806;51.554;5.704;2022-09-27T04:59:52;6.05;;;1.60;;
50495;SDS011;38806;51.554;5.704;2022-09-27T05:01:52;5.60;;;2.22;;
50495;SDS011;38806;51.554;5.704;2022-09-27T05:03:53;5.45;;;1.92;;
50495;SDS011;38806;51.554;5.704;2022-09-27T05:05:53;4.10;;;1.50;;
50495;SDS011;38806;51.554;5.704;2022-09-27T05:07:54;8.02;;;1.80;;
50495;SDS011;38806;51.554;5.704;2022-09-27T05:09:54;9.35;;;1.90;;
50495;SDS011;38806;51.554;5.704;2022-09-27T05:11:55;2.95;;;1.33;;
50495;SDS011;38806;51.554;5.704;2022-09-27T05:13:56;8.32;;;2.10;;
50495;SDS011;38806;51.554;5.704;2022-09-27T05:16:00;4.20;;;1.23;;
50495;SDS011;38806;51.554;5.704;2022-09-27T05:18:02;9.90;;;1.30;;
50495;SDS011;38806;51.554;5.704;2022-09-27T05:20:03;8.18;;;1.88;;
50495;SDS011;38806;51.554;5.704;2022-09-27T05:22:07;7.90;;;1.27;;
50495;SDS011;38806;51.554;5.704;2022-09-27T05:24:07;6.93;;;1.52;;
50495;SDS011;38806;51.554;5.704;2022-09-27T05:26:08;6.35;;;1.50;;
50495;SDS011;38806;51.554;5.704;2022-09-27T05:28:08;9.00;;;1.75;;
50495;SDS011;38806;51.554;5.704;2022-09-27T05:30:09;9.38;;;1.02;;
50495;SDS011;38806;51.554;5.704;2022-09-27T05:32:10;2.80;;;1.13;;
50495;SDS011;38806;51.554;5.704;2022-09-27T05:34:10;8.25;;;1.63;;
50495;SDS011;38806;51.554;5.704;2022-09-27T05:36:11;2.55;;;0.70;;
50495;SDS011;38806;51.554;5.704;2022-09-27T05:38:12;4.25;;;1.10;;
50495;SDS011;38806;51.554;5.704;2022-09-27T05:40:12;4.43;;;1.15;;
50495;SDS011;38806;51.554;5.704;2022-09-27T05:42:13;7.68;;;1.17;;
50495;SDS011;38806;51.554;5.704;2022-09-27T05:44:14;2.42;;;0.98;;
50495;SDS011;38806;51.554;5.704;2022-09-27T05:46:15;5.82;;;1.58;;
50495;SDS011;38806;51.554;5.704;2022-09-27T05:48:15;8.50;;;1.48;;
50495;SDS011;38806;51.554;5.704;2022-09-27T05:50:16;4.10;;;1.17;;
50495;SDS011;38806;51.554;5.704;2022-09-27T05:52:17;9.43;;;2.03;;
50495;SDS011;38806;51.554;5.704;2022-09-27T05:54:17;4.40;;;1.35;;
50495;SDS011;38806;51.554;5.704;2022-09-27T05:56:17;6.38;;;1.70;;
50495;SDS011;38806;51.554;5.704;2022-09-27T05:58:17;5.63;;;1.33;;
50495;SDS011;38806;51.554;5.704;2022-09-27T06:00:18;2.47;;;0.70;;
50495;SDS011;38806;51.554;5.704;2022-09-27T06:02:18;2.42;;;1.00;;
50495;SDS011;38806;51.554;5.704;2022-09-27T06:04:19;8.10;;;1.48;;
50495;SDS011;38806;51.554;5.704;2022-09-27T06:06:20;4.18;;;1.25;;
50495;SDS011;38806;51.554;5.704;2022-09-27T06:08:22;4.53;;;1.10;;
50495;SDS011;38806;51.554;5.704;2022-09-27T06:10:22;6.07;;;3.05;;
50495;SDS011;38806;51.554;5.704;2022-09-27T06:12:22;7.85;;;1.13;;
50495;SDS011;38806;51.554;5.704;2022-09-27T06:14:23;7.28;;;1.38;;
50495;SDS011;38806;51.554;5.704;2022-09-27T06:16:23;4.65;;;1.10;;
50495;SDS011;38806;51.554;5.704;2022-09-27T06:18:23;7.88;;;1.35;;
50495;SDS011;38806;51.554;5.704;2022-09-27T06:20:24;4.28;;;1.38;;
50495;SDS011;38806;51.554;5.704;2022-09-27T06:22:25;4.38;;;1.00;;
50495;SDS011;38806;51.554;5.704;2022-09-27T06:24:26;3.53;;;1.15;;
50495;SDS011;38806;51.554;5.704;2022-09-27T06:26:26;3.25;;;0.82;;
50495;SDS011;38806;51.554;5.704;2022-09-27T06:28:26;2.40;;;1.02;;
50495;SDS011;38806;51.554;5.704;2022-09-27T06:30:27;2.30;;;1.42;;
50495;SDS011;38806;51.554;5.704;2022-09-27T06:32:28;6.35;;;1.02;;
50495;SDS011;38806;51.554;5.704;2022-09-27T06:34:28;3.95;;;0.88;;
50495;SDS011;38806;51.554;5.704;2022-09-27T06:36:28;4.40;;;1.25;;
50495;SDS011;38806;51.554;5.704;2022-09-27T06:38:29;3.63;;;1.42;;
50495;SDS011;38806;51.554;5.704;2022-09-27T06:40:29;2.67;;;0.57;;
50495;SDS011;38806;51.554;5.704;2022-09-27T06:42:30;3.67;;;1.08;;
50495;SDS011;38806;51.554;5.704;2022-09-27T06:44:30;4.05;;;0.88;;
50495;SDS011;38806;51.554;5.704;2022-09-27T06:46:30;4.97;;;1.13;;
50495;SDS011;38806;51.554;5.704;2022-09-27T06:48:31;5.65;;;1.15;;
50495;SDS011;38806;51.554;5.704;2022-09-27T06:50:33;4.28;;;1.42;;
50495;SDS011;38806;51.554;5.704;2022-09-27T06:52:35;4.05;;;0.88;;
50495;SDS011;38806;51.554;5.704;2022-09-27T06:54:36;3.80;;;1.33;;
50495;SDS011;38806;51.554;5.704;2022-09-27T06:56:36;4.03;;;1.30;;
50495;SDS011;38806;51.554;5.704;2022-09-27T06:58:36;3.00;;;1.52;;
50495;SDS011;38806;51.554;5.704;2022-09-27T07:00:55;5.55;;;1.15;;
50495;SDS011;38806;51.554;5.704;2022-09-27T07:02:57;2.28;;;1.38;;
50495;SDS011;38806;51.554;5.704;2022-09-27T07:05:00;6.80;;;2.20;;
50495;SDS011;38806;51.554;5.704;2022-09-27T07:07:02;3.45;;;1.23;;
50495;SDS011;38806;51.554;5.704;2022-09-27T07:09:02;2.47;;;0.95;;
50495;SDS011;38806;51.554;5.704;2022-09-27T07:11:05;2.28;;;1.13;;
50495;SDS011;38806;51.554;5.704;2022-09-27T07:13:07;6.25;;;2.55;;
50495;SDS011;38806;51.554;5.704;2022-09-27T07:15:09;5.03;;;1.70;;
50495;SDS011;38806;51.554;5.704;2022-09-27T07:17:09;6.00;;;2.03;;
50495;SDS011;38806;51.554;5.704;2022-09-27T07:19:09;6.90;;;1.60;;
50495;SDS011;38806;51.554;5.704;2022-09-27T07:21:12;7.53;;;1.85;;
50495;SDS011;38806;51.554;5.704;2022-09-27T07:23:15;13.90;;;3.25;;
50495;SDS011;38806;51.554;5.704;2022-09-27T07:25:15;6.65;;;2.55;;
50495;SDS011;38806;51.554;5.704;2022-09-27T07:27:16;7.70;;;2.13;;
50495;SDS011;38806;51.554;5.704;2022-09-27T07:29:17;8.00;;;2.60;;
50495;SDS011;38806;51.554;5.704;2022-09-27T07:31:17;5.30;;;2.55;;
50495;SDS011;38806;51.554;5.704;2022-09-27T07:33:17;6.18;;;2.30;;
50495;SDS011;38806;51.554;5.704;2022-09-27T07:35:18;7.68;;;2.63;;
50495;SDS011;38806;51.554;5.704;2022-09-27T07:37:18;7.80;;;2.60;;
50495;SDS011;38806;51.554;5.704;2022-09-27T07:39:18;6.53;;;2.33;;
50495;SDS011;38806;51.554;5.704;2022-09-27T07:41:21;9.88;;;3.42;;
50495;SDS011;38806;51.554;5.704;2022-09-27T07:43:21;4.72;;;3.28;;
50495;SDS011;38806;51.554;5.704;2022-09-27T07:45:21;5.05;;;2.80;;
50495;SDS011;38806;51.554;5.704;2022-09-27T07:47:25;6.03;;;3.15;;
50495;SDS011;38806;51.554;5.704;2022-09-27T07:49:26;6.75;;;2.97;;
50495;SDS011;38806;51.554;5.704;2022-09-27T07:51:26;6.45;;;2.05;;
50495;SDS011;38806;51.554;5.704;2022-09-27T07:53:27;7.15;;;3.47;;
50495;SDS011;38806;51.554;5.704;2022-09-27T07:55:27;8.00;;;2.55;;
50495;SDS011;38806;51.554;5.704;2022-09-27T07:57:28;7.72;;;3.75;;
50495;SDS011;38806;51.554;5.704;2022-09-27T07:59:29;7.05;;;3.22;;
50495;SDS011;38806;51.554;5.704;2022-09-27T08:01:29;6.57;;;4.20;;
50495;SDS011;38806;51.554;5.704;2022-09-27T08:03:29;9.60;;;4.03;;
50495;SDS011;38806;51.554;5.704;2022-09-27T08:05:30;11.23;;;3.95;;
50495;SDS011;38806;51.554;5.704;2022-09-27T08:07:30;6.13;;;3.40;;
50495;SDS011;38806;51.554;5.704;2022-09-27T08:09:31;8.32;;;4.65;;
50495;SDS011;38806;51.554;5.704;2022-09-27T08:11:32;12.13;;;4.13;;
50495;SDS011;38806;51.554;5.704;2022-09-27T08:13:32;9.98;;;4.55;;
50495;SDS011;38806;51.554;5.704;2022-09-27T08:15:33;9.45;;;5.28;;
50495;SDS011;38806;51.554;5.704;2022-09-27T08:17:38;7.63;;;4.93;;
50495;SDS011;38806;51.554;5.704;2022-09-27T08:19:38;7.80;;;4.22;;
50495;SDS011;38806;51.554;5.704;2022-09-27T08:21:39;7.20;;;4.50;;
50495;SDS011;38806;51.554;5.704;2022-09-27T08:23:40;9.65;;;4.80;;
50495;SDS011;38806;51.554;5.704;2022-09-27T08:25:41;8.07;;;4.78;;
50495;SDS011;38806;51.554;5.704;2022-09-27T08:27:43;8.27;;;4.70;;
50495;SDS011;38806;51.554;5.704;2022-09-27T08:29:43;7.30;;;4.35;;
50495;SDS011;38806;51.554;5.704;2022-09-27T08:31:43;7.28;;;4.50;;
50495;SDS011;38806;51.554;5.704;2022-09-27T08:33:47;9.30;;;5.15;;
50495;SDS011;38806;51.554;5.704;2022-09-27T08:35:52;9.30;;;5.03;;
50495;SDS011;38806;51.554;5.704;2022-09-27T08:37:55;10.63;;;6.20;;
50495;SDS011;38806;51.554;5.704;2022-09-27T08:39:58;9.43;;;5.63;;
50495;SDS011;38806;51.554;5.704;2022-09-27T08:42:05;8.40;;;5.68;;
50495;SDS011;38806;51.554;5.704;2022-09-27T08:44:37;9.55;;;5.75;;
50495;SDS011;38806;51.554;5.704;2022-09-27T08:46:49;10.13;;;5.30;;
50495;SDS011;38806;51.554;5.704;2022-09-27T08:49:44;8.10;;;5.13;;
50495;SDS011;38806;51.554;5.704;2022-09-27T08:51:27;7.75;;;5.20;;
50495;SDS011;38806;51.554;5.704;2022-09-27T08:53:33;9.13;;;5.47;;
50495;SDS011;38806;51.554;5.704;2022-09-27T08:55:40;6.93;;;4.82;;
50495;SDS011;38806;51.554;5.704;2022-09-27T08:57:43;11.73;;;7.38;;
50495;SDS011;38806;51.554;5.704;2022-09-27T08:59:49;12.38;;;6.60;;
50495;SDS011;38806;51.554;5.704;2022-09-27T09:02:08;8.90;;;5.63;;
50495;SDS011;38806;51.554;5.704;2022-09-27T09:04:19;9.68;;;5.93;;
50495;SDS011;38806;51.554;5.704;2022-09-27T09:08:30;9.48;;;6.10;;
50495;SDS011;38806;51.554;5.704;2022-09-27T09:15:59;12.57;;;6.97;;
50495;SDS011;38806;51.554;5.704;2022-09-27T09:20:28;10.05;;;7.60;;
50495;SDS011;38806;51.554;5.704;2022-09-27T09:22:56;13.45;;;8.88;;
50495;SDS011;38806;51.554;5.704;2022-09-27T09:27:24;14.00;;;8.60;;
50495;SDS011;38806;51.554;5.704;2022-09-27T09:36:55;17.70;;;11.15;;
50495;SDS011;38806;51.554;5.704;2022-09-27T09:39:04;16.52;;;10.43;;
50495;SDS011;38806;51.554;5.704;2022-09-27T09:41:30;22.80;;;11.85;;
50495;SDS011;38806;51.554;5.704;2022-09-27T09:43:39;20.00;;;12.25;;
50495;SDS011;38806;51.554;5.704;2022-09-27T09:45:48;22.85;;;12.80;;
50495;SDS011;38806;51.554;5.704;2022-09-27T09:47:54;19.45;;;12.68;;
50495;SDS011;38806;51.554;5.704;2022-09-27T09:50:14;19.33;;;10.93;;
50495;SDS011;38806;51.554;5.704;2022-09-27T09:52:28;27.58;;;13.25;;
50495;SDS011;38806;51.554;5.704;2022-09-27T09:54:42;20.27;;;11.05;;
50495;SDS011;38806;51.554;5.704;2022-09-27T09:56:58;15.95;;;9.80;;
50495;SDS011;38806;51.554;5.704;2022-09-27T09:59:23;18.00;;;12.18;;
50495;SDS011;38806;51.554;5.704;2022-09-27T10:01:41;18.80;;;11.50;;
50495;SDS011;38806;51.554;5.704;2022-09-27T10:03:43;18.58;;;11.70;;
50495;SDS011;38806;51.554;5.704;2022-09-27T10:05:44;18.27;;;12.27;;
50495;SDS011;38806;51.554;5.704;2022-09-27T10:07:44;18.70;;;12.07;;
50495;SDS011;38806;51.554;5.704;2022-09-27T10:09:46;19.70;;;12.07;;
50495;SDS011;38806;51.554;5.704;2022-09-27T10:11:47;19.45;;;12.13;;
50495;SDS011;38806;51.554;5.704;2022-09-27T10:13:47;22.88;;;13.40;;
50495;SDS011;38806;51.554;5.704;2022-09-27T10:15:55;33.30;;;13.73;;
50495;SDS011;38806;51.554;5.704;2022-09-27T10:18:08;64.63;;;11.67;;
50495;SDS011;38806;51.554;5.704;2022-09-27T10:22:39;18.55;;;10.43;;
50495;SDS011;38806;51.554;5.704;2022-09-27T10:24:54;29.25;;;13.35;;
50495;SDS011;38806;51.554;5.704;2022-09-27T10:26:57;16.27;;;8.02;;
50495;SDS011;38806;51.554;5.704;2022-09-27T10:29:12;16.80;;;7.38;;
50495;SDS011;38806;51.554;5.704;2022-09-27T10:31:16;14.55;;;7.88;;
50495;SDS011;38806;51.554;5.704;2022-09-27T10:33:18;14.43;;;7.03;;
50495;SDS011;38806;51.554;5.704;2022-09-27T10:37:28;19.55;;;7.85;;
50495;SDS011;38806;51.554;5.704;2022-09-27T10:39:29;9.70;;;4.97;;
50495;SDS011;38806;51.554;5.704;2022-09-27T10:43:31;13.48;;;5.78;;
50495;SDS011;38806;51.554;5.704;2022-09-27T10:45:35;10.52;;;4.90;;
50495;SDS011;38806;51.554;5.704;2022-09-27T10:47:36;14.10;;;6.30;;
50495;SDS011;38806;51.554;5.704;2022-09-27T10:49:37;14.00;;;6.70;;
50495;SDS011;38806;51.554;5.704;2022-09-27T10:51:39;11.40;;;6.93;;
50495;SDS011;38806;51.554;5.704;2022-09-27T10:53:43;13.38;;;6.13;;
50495;SDS011;38806;51.554;5.704;2022-09-27T10:55:46;12.75;;;6.03;;
50495;SDS011;38806;51.554;5.704;2022-09-27T10:57:48;8.75;;;4.25;;
50495;SDS011;38806;51.554;5.704;2022-09-27T11:00:25;9.80;;;4.07;;
50495;SDS011;38806;51.554;5.704;2022-09-27T11:02:43;5.80;;;2.88;;
50495;SDS011;38806;51.554;5.704;2022-09-27T11:05:07;9.52;;;3.17;;
50495;SDS011;38806;51.554;5.704;2022-09-27T11:09:19;6.75;;;2.45;;
50495;SDS011;38806;51.554;5.704;2022-09-27T11:11:26;6.95;;;3.15;;
50495;SDS011;38806;51.554;5.704;2022-09-27T11:13:27;5.70;;;2.30;;
50495;SDS011;38806;51.554;5.704;2022-09-27T11:16:16;5.95;;;2.75;;
50495;SDS011;38806;51.554;5.704;2022-09-27T11:19:03;6.25;;;2.08;;
50495;SDS011;38806;51.554;5.704;2022-09-27T11:21:15;7.68;;;2.15;;
50495;SDS011;38806;51.554;5.704;2022-09-27T11:25:40;4.47;;;1.40;;
50495;SDS011;38806;51.554;5.704;2022-09-27T11:27:52;3.25;;;1.50;;
50495;SDS011;38806;51.554;5.704;2022-09-27T11:30:10;2.47;;;1.10;;
50495;SDS011;38806;51.554;5.704;2022-09-27T11:57:24;1.05;;;0.40;;
50495;SDS011;38806;51.554;5.704;2022-09-27T12:04:59;3.20;;;0.80;;
50495;SDS011;38806;51.554;5.704;2022-09-27T12:09:38;3.40;;;1.30;;
50495;SDS011;38806;51.554;5.704;2022-09-27T12:11:43;2.58;;;0.80;;
50495;SDS011;38806;51.554;5.704;2022-09-27T12:13:58;2.33;;;0.60;;
50495;SDS011;38806;51.554;5.704;2022-09-27T12:16:02;5.05;;;0.98;;
50495;SDS011;38806;51.554;5.704;2022-09-27T12:18:21;1.77;;;0.63;;
50495;SDS011;38806;51.554;5.704;2022-09-27T12:20:33;3.58;;;0.55;;
50495;SDS011;38806;51.554;5.704;2022-09-27T12:22:37;1.63;;;0.60;;
50495;SDS011;38806;51.554;5.704;2022-09-27T12:24:48;2.47;;;0.80;;
50495;SDS011;38806;51.554;5.704;2022-09-27T12:26:50;1.85;;;0.60;;
50495;SDS011;38806;51.554;5.704;2022-09-27T12:28:55;1.67;;;0.40;;
50495;SDS011;38806;51.554;5.704;2022-09-27T12:31:02;3.17;;;0.45;;
50495;SDS011;38806;51.554;5.704;2022-09-27T12:33:34;3.42;;;0.75;;
50495;SDS011;38806;51.554;5.704;2022-09-27T12:35:43;1.23;;;0.50;;
50495;SDS011;38806;51.554;5.704;2022-09-27T12:37:56;2.90;;;0.45;;
50495;SDS011;38806;51.554;5.704;2022-09-27T12:40:05;1.05;;;0.40;;
50495;SDS011;38806;51.554;5.704;2022-09-27T12:42:16;1.95;;;0.50;;
50495;SDS011;38806;51.554;5.704;2022-09-27T12:44:24;1.88;;;0.50;;
50495;SDS011;38806;51.554;5.704;2022-09-27T12:51:28;1.75;;;0.55;;
50495;SDS011;38806;51.554;5.704;2022-09-27T12:53:42;0.57;;;0.40;;
50495;SDS011;38806;51.554;5.704;2022-09-27T13:00:33;0.90;;;0.50;;
50495;SDS011;38806;51.554;5.704;2022-09-27T13:07:54;2.30;;;0.90;;
50495;SDS011;38806;51.554;5.704;2022-09-27T13:10:00;2.95;;;0.60;;
50495;SDS011;38806;51.554;5.704;2022-09-27T13:12:10;2.97;;;1.35;;
50495;SDS011;38806;51.554;5.704;2022-09-27T13:14:18;1.65;;;0.88;;
50495;SDS011;38806;51.554;5.704;2022-09-27T13:16:20;3.22;;;1.00;;
50495;SDS011;38806;51.554;5.704;2022-09-27T13:18:31;2.72;;;0.85;;
50495;SDS011;38806;51.554;5.704;2022-09-27T13:20:54;1.10;;;0.60;;
50495;SDS011;38806;51.554;5.704;2022-09-27T13:22:56;2.15;;;0.50;;
50495;SDS011;38806;51.554;5.704;2022-09-27T13:24:57;3.03;;;0.57;;
50495;SDS011;38806;51.554;5.704;2022-09-27T13:26:57;2.08;;;1.00;;
50495;SDS011;38806;51.554;5.704;2022-09-27T13:29:00;0.75;;;0.38;;
50495;SDS011;38806;51.554;5.704;2022-09-27T13:31:05;1.23;;;0.40;;
50495;SDS011;38806;51.554;5.704;2022-09-27T13:35:16;1.67;;;0.90;;
50495;SDS011;38806;51.554;5.704;2022-09-27T13:37:27;2.75;;;0.68;;
50495;SDS011;38806;51.554;5.704;2022-09-27T13:39:47;3.42;;;0.77;;
50495;SDS011;38806;51.554;5.704;2022-09-27T13:43:53;1.65;;;0.90;;
50495;SDS011;38806;51.554;5.704;2022-09-27T13:46:12;3.75;;;1.00;;
50495;SDS011;38806;51.554;5.704;2022-09-27T13:48:23;2.13;;;0.77;;
50495;SDS011;38806;51.554;5.704;2022-09-27T13:50:27;5.07;;;1.23;;
50495;SDS011;38806;51.554;5.704;2022-09-27T13:52:35;4.28;;;1.23;;
50495;SDS011;38806;51.554;5.704;2022-09-27T13:58:40;2.65;;;1.20;;
50495;SDS011;38806;51.554;5.704;2022-09-27T14:00:49;2.70;;;0.80;;
50495;SDS011;38806;51.554;5.704;2022-09-27T14:05:11;2.08;;;1.00;;
50495;SDS011;38806;51.554;5.704;2022-09-27T14:07:26;3.33;;;1.02;;
50495;SDS011;38806;51.554;5.704;2022-09-27T14:09:51;3.10;;;1.00;;
50495;SDS011;38806;51.554;5.704;2022-09-27T14:11:55;2.10;;;1.08;;
50495;SDS011;38806;51.554;5.704;2022-09-27T14:13:58;3.97;;;0.85;;
50495;SDS011;38806;51.554;5.704;2022-09-27T14:16:01;3.75;;;1.27;;
50495;SDS011;38806;51.554;5.704;2022-09-27T14:18:03;5.55;;;1.30;;
50495;SDS011;38806;51.554;5.704;2022-09-27T14:20:04;4.03;;;1.42;;
50495;SDS011;38806;51.554;5.704;2022-09-27T14:22:11;2.75;;;1.20;;
50495;SDS011;38806;51.554;5.704;2022-09-27T14:26:42;4.25;;;2.20;;
50495;SDS011;38806;51.554;5.704;2022-09-27T14:28:43;5.45;;;1.55;;
50495;SDS011;38806;51.554;5.704;2022-09-27T14:30:43;4.10;;;1.70;;
50495;SDS011;38806;51.554;5.704;2022-09-27T14:32:46;5.90;;;1.50;;
50495;SDS011;38806;51.554;5.704;2022-09-27T14:37:46;4.70;;;1.50;;
50495;SDS011;38806;51.554;5.704;2022-09-27T14:39:52;8.68;;;1.85;;
50495;SDS011;38806;51.554;5.704;2022-09-27T14:42:15;4.40;;;1.35;;
50495;SDS011;38806;51.554;5.704;2022-09-27T14:44:19;8.70;;;2.15;;
50495;SDS011;38806;51.554;5.704;2022-09-27T14:46:24;5.68;;;1.75;;